sensor_id;sensor_type;location;lat;lon;timestamp;temperature;humidity
13344;DHT22;6741;48.964;9.406;2023-02-28T00:01:25;-2.10;99.90
13344;DHT22;6741;48.964;9.406;2023-02-28T00:03:52;-2.10;99.90
13344;DHT22;6741;48.964;9.406;2023-02-28T00:06:19;-2.10;99.90
13344;DHT22;6741;48.964;9.406;2023-02-28T00:08:48;-2.10;99.90
13344;DHT22;6741;48.964;9.406;2023-02-28T00:11:18;-2.20;99.90
13344;DHT22;6741;48.964;9.406;2023-02-28T00:13:48;-2.10;99.90
13344;DHT22;6741;48.964;9.406;2023-02-28T00:16:16;-2.10;99.90
13344;DHT22;6741;48.964;9.406;2023-02-28T00:18:43;-2.10;99.90
13344;DHT22;6741;48.964;9.406;2023-02-28T00:21:13;-2.10;99.90
13344;DHT22;6741;48.964;9.406;2023-02-28T00:23:40;-2.10;99.90
13344;DHT22;6741;48.964;9.406;2023-02-28T00:26:09;-2.10;99.90
13344;DHT22;6741;48.964;9.406;2023-02-28T00:28:36;-2.10;99.90
13344;DHT22;6741;48.964;9.406;2023-02-28T00:31:03;-2.20;99.90
13344;DHT22;6741;48.964;9.406;2023-02-28T00:33:30;-2.10;99.90
13344;DHT22;6741;48.964;9.406;2023-02-28T00:36:05;-1.90;99.90
13344;DHT22;6741;48.964;9.406;2023-02-28T00:38:35;-2.00;99.90
13344;DHT22;6741;48.964;9.406;2023-02-28T00:41:03;-2.10;99.90
13344;DHT22;6741;48.964;9.406;2023-02-28T00:43:33;-2.20;99.90
13344;DHT22;6741;48.964;9.406;2023-02-28T00:46:00;-2.20;99.90
13344;DHT22;6741;48.964;9.406;2023-02-28T00:48:27;-2.20;99.90
13344;DHT22;6741;48.964;9.406;2023-02-28T00:50:54;-2.20;99.90
13344;DHT22;6741;48.964;9.406;2023-02-28T00:53:22;-2.20;99.90
13344;DHT22;6741;48.964;9.406;2023-02-28T00:55:49;-2.20;99.90
13344;DHT22;6741;48.964;9.406;2023-02-28T00:58:16;-2.00;99.90
13344;DHT22;6741;48.964;9.406;2023-02-28T01:00:47;-2.00;99.90
13344;DHT22;6741;48.964;9.406;2023-02-28T01:03:15;-2.10;99.90
13344;DHT22;6741;48.964;9.406;2023-02-28T01:05:42;-2.10;99.90
13344;DHT22;6741;48.964;9.406;2023-02-28T01:08:09;-2.10;99.90
13344;DHT22;6741;48.964;9.406;2023-02-28T01:10:36;-2.20;99.90
13344;DHT22;6741;48.964;9.406;2023-02-28T01:13:03;-2.30;99.90
13344;DHT22;6741;48.964;9.406;2023-02-28T01:15:30;-2.30;99.90
13344;DHT22;6741;48.964;9.406;2023-02-28T01:17:59;-2.20;99.90
13344;DHT22;6741;48.964;9.406;2023-02-28T01:20:26;-2.20;99.90
13344;DHT22;6741;48.964;9.406;2023-02-28T01:22:55;-2.20;99.90
13344;DHT22;6741;48.964;9.406;2023-02-28T01:25:22;-2.20;99.90
13344;DHT22;6741;48.964;9.406;2023-02-28T01:27:49;-2.20;99.90
13344;DHT22;6741;48.964;9.406;2023-02-28T01:30:16;-2.20;99.90
13344;DHT22;6741;48.964;9.406;2023-02-28T01:32:43;-2.30;99.90
13344;DHT22;6741;48.964;9.406;2023-02-28T01:35:12;-2.30;99.90
13344;DHT22;6741;48.964;9.406;2023-02-28T01:37:39;-2.30;99.90
13344;DHT22;6741;48.964;9.406;2023-02-28T01:40:07;-2.30;99.90
13344;DHT22;6741;48.964;9.406;2023-02-28T01:42:34;-2.30;99.90
13344;DHT22;6741;48.964;9.406;2023-02-28T01:45:06;-2.30;99.90
13344;DHT22;6741;48.964;9.406;2023-02-28T01:47:42;-2.30;99.90
13344;DHT22;6741;48.964;9.406;2023-02-28T01:50:14;-2.10;99.90
13344;DHT22;6741;48.964;9.406;2023-02-28T01:52:45;-2.20;99.90
13344;DHT22;6741;48.964;9.406;2023-02-28T01:55:15;-2.30;99.90
13344;DHT22;6741;48.964;9.406;2023-02-28T01:57:46;-2.40;99.90
13344;DHT22;6741;48.964;9.406;2023-02-28T02:00:17;-2.20;99.90
13344;DHT22;6741;48.964;9.406;2023-02-28T02:02:47;-2.20;99.90
13344;DHT22;6741;48.964;9.406;2023-02-28T02:05:19;-2.30;99.90
13344;DHT22;6741;48.964;9.406;2023-02-28T02:07:48;-2.30;99.90
13344;DHT22;6741;48.964;9.406;2023-02-28T02:10:18;-2.30;99.90
13344;DHT22;6741;48.964;9.406;2023-02-28T02:15:46;-2.40;99.90
13344;DHT22;6741;48.964;9.406;2023-02-28T02:18:23;-2.40;99.90
13344;DHT22;6741;48.964;9.406;2023-02-28T02:21:13;-2.40;99.90
13344;DHT22;6741;48.964;9.406;2023-02-28T02:27:26;-2.30;99.90
13344;DHT22;6741;48.964;9.406;2023-02-28T02:30:26;-2.30;99.90
13344;DHT22;6741;48.964;9.406;2023-02-28T02:33:31;-2.20;99.90
13344;DHT22;6741;48.964;9.406;2023-02-28T02:36:06;-2.30;99.90
13344;DHT22;6741;48.964;9.406;2023-02-28T02:38:39;-2.40;99.90
13344;DHT22;6741;48.964;9.406;2023-02-28T02:41:16;-2.40;99.90
13344;DHT22;6741;48.964;9.406;2023-02-28T02:43:50;-2.30;99.90
13344;DHT22;6741;48.964;9.406;2023-02-28T02:46:20;-2.30;99.90
13344;DHT22;6741;48.964;9.406;2023-02-28T02:48:48;-2.30;99.90
13344;DHT22;6741;48.964;9.406;2023-02-28T02:51:21;-2.20;99.90
13344;DHT22;6741;48.964;9.406;2023-02-28T02:53:52;-1.90;99.90
13344;DHT22;6741;48.964;9.406;2023-02-28T02:56:23;-2.10;99.90
13344;DHT22;6741;48.964;9.406;2023-02-28T02:58:54;-2.10;99.90
13344;DHT22;6741;48.964;9.406;2023-02-28T03:01:24;-2.20;99.90
13344;DHT22;6741;48.964;9.406;2023-02-28T03:03:56;-2.20;99.90
13344;DHT22;6741;48.964;9.406;2023-02-28T03:06:25;-2.20;99.90
13344;DHT22;6741;48.964;9.406;2023-02-28T03:08:53;-2.20;99.90
13344;DHT22;6741;48.964;9.406;2023-02-28T03:11:20;-2.20;99.90
13344;DHT22;6741;48.964;9.406;2023-02-28T03:14:05;-2.20;99.90
13344;DHT22;6741;48.964;9.406;2023-02-28T03:16:45;-2.20;99.90
13344;DHT22;6741;48.964;9.406;2023-02-28T03:19:37;-2.20;99.90
13344;DHT22;6741;48.964;9.406;2023-02-28T03:22:16;-2.20;99.90
13344;DHT22;6741;48.964;9.406;2023-02-28T03:24:51;-2.20;99.90
13344;DHT22;6741;48.964;9.406;2023-02-28T03:27:24;-2.10;99.90
13344;DHT22;6741;48.964;9.406;2023-02-28T03:29:59;-2.10;99.90
13344;DHT22;6741;48.964;9.406;2023-02-28T03:32:33;-2.10;99.90
13344;DHT22;6741;48.964;9.406;2023-02-28T03:35:06;-1.90;99.90
13344;DHT22;6741;48.964;9.406;2023-02-28T03:37:38;-2.00;99.90
13344;DHT22;6741;48.964;9.406;2023-02-28T03:40:10;-2.00;99.90
13344;DHT22;6741;48.964;9.406;2023-02-28T03:42:40;-2.10;99.90
13344;DHT22;6741;48.964;9.406;2023-02-28T03:45:11;-2.10;99.90
13344;DHT22;6741;48.964;9.406;2023-02-28T03:47:43;-2.10;99.90
13344;DHT22;6741;48.964;9.406;2023-02-28T03:50:14;-2.10;99.90
13344;DHT22;6741;48.964;9.406;2023-02-28T03:52:47;-2.10;99.90
13344;DHT22;6741;48.964;9.406;2023-02-28T03:55:16;-2.10;99.90
13344;DHT22;6741;48.964;9.406;2023-02-28T03:57:52;-2.10;99.90
13344;DHT22;6741;48.964;9.406;2023-02-28T04:00:27;-2.10;99.90
13344;DHT22;6741;48.964;9.406;2023-02-28T04:02:55;-2.10;99.90
13344;DHT22;6741;48.964;9.406;2023-02-28T04:05:23;-2.10;99.90
13344;DHT22;6741;48.964;9.406;2023-02-28T04:07:52;-2.10;99.90
13344;DHT22;6741;48.964;9.406;2023-02-28T04:10:19;-2.10;99.90
13344;DHT22;6741;48.964;9.406;2023-02-28T04:12:47;-2.00;99.90
13344;DHT22;6741;48.964;9.406;2023-02-28T04:15:14;-2.00;99.90
13344;DHT22;6741;48.964;9.406;2023-02-28T04:17:41;-1.80;99.90
13344;DHT22;6741;48.964;9.406;2023-02-28T04:20:09;-1.90;99.90
13344;DHT22;6741;48.964;9.406;2023-02-28T04:22:37;-2.00;99.90
13344;DHT22;6741;48.964;9.406;2023-02-28T04:25:07;-2.00;99.90
13344;DHT22;6741;48.964;9.406;2023-02-28T04:27:34;-2.00;99.90
13344;DHT22;6741;48.964;9.406;2023-02-28T04:30:01;-2.00;99.90
13344;DHT22;6741;48.964;9.406;2023-02-28T04:32:28;-2.00;99.90
13344;DHT22;6741;48.964;9.406;2023-02-28T04:34:55;-2.00;99.90
13344;DHT22;6741;48.964;9.406;2023-02-28T04:37:22;-2.10;99.90
13344;DHT22;6741;48.964;9.406;2023-02-28T04:39:53;-2.10;99.90
13344;DHT22;6741;48.964;9.406;2023-02-28T04:42:21;-2.00;99.90
13344;DHT22;6741;48.964;9.406;2023-02-28T04:44:48;-2.00;99.90
13344;DHT22;6741;48.964;9.406;2023-02-28T04:47:15;-2.10;99.90
13344;DHT22;6741;48.964;9.406;2023-02-28T04:49:42;-2.00;99.90
13344;DHT22;6741;48.964;9.406;2023-02-28T04:52:09;-1.90;99.90
13344;DHT22;6741;48.964;9.406;2023-02-28T04:54:36;-1.90;99.90
13344;DHT22;6741;48.964;9.406;2023-02-28T04:57:04;-2.00;99.90
13344;DHT22;6741;48.964;9.406;2023-02-28T04:59:32;-1.90;99.90
13344;DHT22;6741;48.964;9.406;2023-02-28T05:01:59;-1.90;99.90
13344;DHT22;6741;48.964;9.406;2023-02-28T05:04:32;-1.80;99.90
13344;DHT22;6741;48.964;9.406;2023-02-28T05:07:00;-1.90;99.90
13344;DHT22;6741;48.964;9.406;2023-02-28T05:09:27;-2.00;99.90
13344;DHT22;6741;48.964;9.406;2023-02-28T05:11:55;-2.00;99.90
13344;DHT22;6741;48.964;9.406;2023-02-28T05:14:22;-2.00;99.90
13344;DHT22;6741;48.964;9.406;2023-02-28T05:16:50;-2.00;99.90
13344;DHT22;6741;48.964;9.406;2023-02-28T05:19:17;-1.90;99.90
13344;DHT22;6741;48.964;9.406;2023-02-28T05:21:50;-1.90;99.90
13344;DHT22;6741;48.964;9.406;2023-02-28T05:24:18;-1.90;99.90
13344;DHT22;6741;48.964;9.406;2023-02-28T05:26:49;-2.00;99.90
13344;DHT22;6741;48.964;9.406;2023-02-28T05:29:16;-1.90;99.90
13344;DHT22;6741;48.964;9.406;2023-02-28T05:31:43;-1.90;99.90
13344;DHT22;6741;48.964;9.406;2023-02-28T05:34:11;-1.90;99.90
13344;DHT22;6741;48.964;9.406;2023-02-28T05:36:40;-1.90;99.90
13344;DHT22;6741;48.964;9.406;2023-02-28T05:39:08;-1.90;99.90
13344;DHT22;6741;48.964;9.406;2023-02-28T05:41:39;-1.80;99.90
13344;DHT22;6741;48.964;9.406;2023-02-28T05:44:06;-1.80;99.90
13344;DHT22;6741;48.964;9.406;2023-02-28T05:46:33;-1.60;99.90
13344;DHT22;6741;48.964;9.406;2023-02-28T05:49:00;-1.70;99.90
13344;DHT22;6741;48.964;9.406;2023-02-28T05:51:28;-1.80;99.90
13344;DHT22;6741;48.964;9.406;2023-02-28T05:53:59;-1.90;99.90
13344;DHT22;6741;48.964;9.406;2023-02-28T05:56:28;-1.90;99.90
13344;DHT22;6741;48.964;9.406;2023-02-28T05:58:55;-1.90;99.90
13344;DHT22;6741;48.964;9.406;2023-02-28T06:01:31;-1.90;99.90
13344;DHT22;6741;48.964;9.406;2023-02-28T06:03:58;-1.90;99.90
13344;DHT22;6741;48.964;9.406;2023-02-28T06:06:25;-1.90;99.90
13344;DHT22;6741;48.964;9.406;2023-02-28T06:08:54;-1.90;99.90
13344;DHT22;6741;48.964;9.406;2023-02-28T06:11:21;-1.80;99.90
13344;DHT22;6741;48.964;9.406;2023-02-28T06:13:53;-1.90;99.90
13344;DHT22;6741;48.964;9.406;2023-02-28T06:16:21;-1.90;99.90
13344;DHT22;6741;48.964;9.406;2023-02-28T06:18:48;-1.90;99.90
13344;DHT22;6741;48.964;9.406;2023-02-28T06:21:15;-1.90;99.90
13344;DHT22;6741;48.964;9.406;2023-02-28T06:23:42;-1.80;99.90
13344;DHT22;6741;48.964;9.406;2023-02-28T06:26:10;-1.90;99.90
13344;DHT22;6741;48.964;9.406;2023-02-28T06:28:37;-1.90;99.90
13344;DHT22;6741;48.964;9.406;2023-02-28T06:31:09;-1.70;99.90
13344;DHT22;6741;48.964;9.406;2023-02-28T06:33:37;-1.80;99.90
13344;DHT22;6741;48.964;9.406;2023-02-28T06:36:05;-1.80;99.90
13344;DHT22;6741;48.964;9.406;2023-02-28T06:38:32;-1.80;99.90
13344;DHT22;6741;48.964;9.406;2023-02-28T06:41:00;-1.90;99.90
13344;DHT22;6741;48.964;9.406;2023-02-28T06:43:30;-1.90;99.90
13344;DHT22;6741;48.964;9.406;2023-02-28T06:45:59;-1.90;99.90
13344;DHT22;6741;48.964;9.406;2023-02-28T06:48:27;-1.90;99.90
13344;DHT22;6741;48.964;9.406;2023-02-28T06:51:02;-1.90;99.90
13344;DHT22;6741;48.964;9.406;2023-02-28T06:53:29;-1.90;99.90
13344;DHT22;6741;48.964;9.406;2023-02-28T06:55:56;-1.90;99.90
13344;DHT22;6741;48.964;9.406;2023-02-28T06:58:23;-2.00;99.90
13344;DHT22;6741;48.964;9.406;2023-02-28T07:00:52;-1.90;99.90
13344;DHT22;6741;48.964;9.406;2023-02-28T07:03:19;-1.90;99.90
13344;DHT22;6741;48.964;9.406;2023-02-28T07:05:46;-1.90;99.90
13344;DHT22;6741;48.964;9.406;2023-02-28T07:08:13;-1.90;99.90
13344;DHT22;6741;48.964;9.406;2023-02-28T07:10:41;-1.90;99.90
13344;DHT22;6741;48.964;9.406;2023-02-28T07:13:08;-1.80;99.90
13344;DHT22;6741;48.964;9.406;2023-02-28T07:15:35;-1.80;99.90
13344;DHT22;6741;48.964;9.406;2023-02-28T07:18:04;-1.80;99.90
13344;DHT22;6741;48.964;9.406;2023-02-28T07:20:31;-1.60;99.90
13344;DHT22;6741;48.964;9.406;2023-02-28T07:22:57;-1.50;99.90
13344;DHT22;6741;48.964;9.406;2023-02-28T07:25:26;-1.60;99.90
13344;DHT22;6741;48.964;9.406;2023-02-28T07:27:53;-1.70;99.90
13344;DHT22;6741;48.964;9.406;2023-02-28T07:30:21;-1.70;99.90
13344;DHT22;6741;48.964;9.406;2023-02-28T07:32:48;-1.60;99.90
13344;DHT22;6741;48.964;9.406;2023-02-28T07:35:16;-1.40;99.90
13344;DHT22;6741;48.964;9.406;2023-02-28T07:37:44;-1.40;99.90
13344;DHT22;6741;48.964;9.406;2023-02-28T07:40:13;-1.50;99.90
13344;DHT22;6741;48.964;9.406;2023-02-28T07:42:41;-1.50;99.90
13344;DHT22;6741;48.964;9.406;2023-02-28T07:45:11;-1.50;99.90
13344;DHT22;6741;48.964;9.406;2023-02-28T07:47:38;-1.50;99.90
13344;DHT22;6741;48.964;9.406;2023-02-28T07:50:11;-1.50;99.90
13344;DHT22;6741;48.964;9.406;2023-02-28T07:52:40;-1.40;99.90
13344;DHT22;6741;48.964;9.406;2023-02-28T07:55:09;-1.40;99.90
13344;DHT22;6741;48.964;9.406;2023-02-28T07:57:36;-1.10;99.90
13344;DHT22;6741;48.964;9.406;2023-02-28T08:00:04;-1.10;99.90
13344;DHT22;6741;48.964;9.406;2023-02-28T08:02:31;-1.20;99.90
13344;DHT22;6741;48.964;9.406;2023-02-28T08:04:59;-1.20;99.90
13344;DHT22;6741;48.964;9.406;2023-02-28T08:07:27;-1.10;99.90
13344;DHT22;6741;48.964;9.406;2023-02-28T08:09:55;-1.00;99.90
13344;DHT22;6741;48.964;9.406;2023-02-28T08:12:22;-1.00;99.90
13344;DHT22;6741;48.964;9.406;2023-02-28T08:14:49;-1.10;99.90
13344;DHT22;6741;48.964;9.406;2023-02-28T08:17:16;-1.00;99.90
13344;DHT22;6741;48.964;9.406;2023-02-28T08:19:45;-1.00;99.90
13344;DHT22;6741;48.964;9.406;2023-02-28T08:22:12;-0.80;99.90
13344;DHT22;6741;48.964;9.406;2023-02-28T08:24:40;-0.70;99.90
13344;DHT22;6741;48.964;9.406;2023-02-28T08:27:09;-0.70;99.90
13344;DHT22;6741;48.964;9.406;2023-02-28T08:29:37;-0.70;99.90
13344;DHT22;6741;48.964;9.406;2023-02-28T08:32:05;-0.60;99.90
13344;DHT22;6741;48.964;9.406;2023-02-28T08:34:32;-0.60;99.90
13344;DHT22;6741;48.964;9.406;2023-02-28T08:36:59;-0.60;99.90
13344;DHT22;6741;48.964;9.406;2023-02-28T08:39:26;-0.50;99.90
13344;DHT22;6741;48.964;9.406;2023-02-28T08:41:53;-0.40;99.90
13344;DHT22;6741;48.964;9.406;2023-02-28T08:44:21;-0.30;99.90
13344;DHT22;6741;48.964;9.406;2023-02-28T08:46:48;-0.30;99.90
13344;DHT22;6741;48.964;9.406;2023-02-28T08:49:15;-0.20;99.90
13344;DHT22;6741;48.964;9.406;2023-02-28T08:51:42;-0.10;99.90
13344;DHT22;6741;48.964;9.406;2023-02-28T08:54:09;0.10;99.90
13344;DHT22;6741;48.964;9.406;2023-02-28T08:56:38;0.10;99.90
13344;DHT22;6741;48.964;9.406;2023-02-28T08:59:05;0.10;99.90
13344;DHT22;6741;48.964;9.406;2023-02-28T09:01:33;0.10;99.90
13344;DHT22;6741;48.964;9.406;2023-02-28T09:04:01;0.20;99.90
13344;DHT22;6741;48.964;9.406;2023-02-28T09:06:29;0.30;99.90
13344;DHT22;6741;48.964;9.406;2023-02-28T09:08:56;0.40;99.90
13344;DHT22;6741;48.964;9.406;2023-02-28T09:11:25;0.40;99.90
13344;DHT22;6741;48.964;9.406;2023-02-28T09:13:52;0.50;99.90
13344;DHT22;6741;48.964;9.406;2023-02-28T09:16:19;0.60;99.90
13344;DHT22;6741;48.964;9.406;2023-02-28T09:18:47;0.60;99.90
13344;DHT22;6741;48.964;9.406;2023-02-28T09:21:16;0.60;99.90
13344;DHT22;6741;48.964;9.406;2023-02-28T09:23:44;1.00;99.90
13344;DHT22;6741;48.964;9.406;2023-02-28T09:26:13;0.90;99.90
13344;DHT22;6741;48.964;9.406;2023-02-28T09:28:41;1.00;99.90
13344;DHT22;6741;48.964;9.406;2023-02-28T09:31:12;1.10;99.90
13344;DHT22;6741;48.964;9.406;2023-02-28T09:33:39;1.10;99.90
13344;DHT22;6741;48.964;9.406;2023-02-28T09:36:08;1.30;99.90
13344;DHT22;6741;48.964;9.406;2023-02-28T09:38:35;1.40;99.90
13344;DHT22;6741;48.964;9.406;2023-02-28T09:41:04;1.30;99.90
13344;DHT22;6741;48.964;9.406;2023-02-28T09:43:40;1.40;99.90
13344;DHT22;6741;48.964;9.406;2023-02-28T09:46:15;1.60;99.90
13344;DHT22;6741;48.964;9.406;2023-02-28T09:48:45;1.60;99.90
13344;DHT22;6741;48.964;9.406;2023-02-28T09:51:34;1.60;99.90
13344;DHT22;6741;48.964;9.406;2023-02-28T09:54:01;1.70;99.90
13344;DHT22;6741;48.964;9.406;2023-02-28T09:56:32;2.00;99.90
13344;DHT22;6741;48.964;9.406;2023-02-28T09:59:02;2.20;99.90
13344;DHT22;6741;48.964;9.406;2023-02-28T10:01:34;2.30;99.90
13344;DHT22;6741;48.964;9.406;2023-02-28T10:04:05;2.00;99.90
13344;DHT22;6741;48.964;9.406;2023-02-28T10:06:43;2.10;99.90
13344;DHT22;6741;48.964;9.406;2023-02-28T10:09:15;2.10;99.90
13344;DHT22;6741;48.964;9.406;2023-02-28T10:11:45;2.00;99.90
13344;DHT22;6741;48.964;9.406;2023-02-28T10:14:15;1.90;99.90
13344;DHT22;6741;48.964;9.406;2023-02-28T10:16:46;1.90;99.90
13344;DHT22;6741;48.964;9.406;2023-02-28T10:19:21;1.90;99.90
13344;DHT22;6741;48.964;9.406;2023-02-28T10:21:56;1.90;99.90
13344;DHT22;6741;48.964;9.406;2023-02-28T10:24:29;2.00;99.90
13344;DHT22;6741;48.964;9.406;2023-02-28T10:27:00;2.30;99.90
13344;DHT22;6741;48.964;9.406;2023-02-28T10:29:28;2.40;99.90
13344;DHT22;6741;48.964;9.406;2023-02-28T10:32:01;2.50;99.90
13344;DHT22;6741;48.964;9.406;2023-02-28T10:34:28;2.50;99.90
13344;DHT22;6741;48.964;9.406;2023-02-28T10:36:59;2.60;99.90
13344;DHT22;6741;48.964;9.406;2023-02-28T10:39:40;2.60;99.90
13344;DHT22;6741;48.964;9.406;2023-02-28T10:42:23;2.80;99.90
13344;DHT22;6741;48.964;9.406;2023-02-28T10:45:06;3.00;99.90
13344;DHT22;6741;48.964;9.406;2023-02-28T10:47:34;3.10;99.90
13344;DHT22;6741;48.964;9.406;2023-02-28T10:50:02;3.10;99.90
13344;DHT22;6741;48.964;9.406;2023-02-28T10:52:38;3.20;99.90
13344;DHT22;6741;48.964;9.406;2023-02-28T10:55:20;3.00;99.90
13344;DHT22;6741;48.964;9.406;2023-02-28T10:57:48;2.60;99.90
13344;DHT22;6741;48.964;9.406;2023-02-28T11:00:20;2.50;99.90
13344;DHT22;6741;48.964;9.406;2023-02-28T11:02:47;2.60;99.90
13344;DHT22;6741;48.964;9.406;2023-02-28T11:05:25;3.00;99.90
13344;DHT22;6741;48.964;9.406;2023-02-28T11:07:56;3.50;99.90
13344;DHT22;6741;48.964;9.406;2023-02-28T11:10:26;4.40;99.90
13344;DHT22;6741;48.964;9.406;2023-02-28T11:12:56;4.70;99.90
13344;DHT22;6741;48.964;9.406;2023-02-28T11:15:25;4.80;99.90
13344;DHT22;6741;48.964;9.406;2023-02-28T11:17:54;4.30;99.90
13344;DHT22;6741;48.964;9.406;2023-02-28T11:20:24;4.20;99.90
13344;DHT22;6741;48.964;9.406;2023-02-28T11:22:53;4.70;99.90
13344;DHT22;6741;48.964;9.406;2023-02-28T11:25:23;5.40;99.90
13344;DHT22;6741;48.964;9.406;2023-02-28T11:27:53;5.90;99.90
13344;DHT22;6741;48.964;9.406;2023-02-28T11:30:29;6.20;99.90
13344;DHT22;6741;48.964;9.406;2023-02-28T11:32:56;6.80;99.90
13344;DHT22;6741;48.964;9.406;2023-02-28T11:35:26;7.30;99.90
13344;DHT22;6741;48.964;9.406;2023-02-28T11:37:55;7.80;99.90
13344;DHT22;6741;48.964;9.406;2023-02-28T11:40:28;8.40;99.90
13344;DHT22;6741;48.964;9.406;2023-02-28T11:43:03;8.90;99.90
13344;DHT22;6741;48.964;9.406;2023-02-28T11:45:53;8.80;99.90
13344;DHT22;6741;48.964;9.406;2023-02-28T11:48:27;8.60;99.90
13344;DHT22;6741;48.964;9.406;2023-02-28T11:51:05;7.80;99.90
13344;DHT22;6741;48.964;9.406;2023-02-28T11:53:55;6.90;99.90
13344;DHT22;6741;48.964;9.406;2023-02-28T11:56:29;6.80;99.90
13344;DHT22;6741;48.964;9.406;2023-02-28T11:59:09;7.10;99.90
13344;DHT22;6741;48.964;9.406;2023-02-28T12:01:58;7.00;99.90
13344;DHT22;6741;48.964;9.406;2023-02-28T12:04:34;6.80;99.90
13344;DHT22;6741;48.964;9.406;2023-02-28T12:07:13;7.80;99.90
13344;DHT22;6741;48.964;9.406;2023-02-28T12:09:53;8.50;99.90
13344;DHT22;6741;48.964;9.406;2023-02-28T12:12:31;8.60;99.90
13344;DHT22;6741;48.964;9.406;2023-02-28T12:15:28;9.30;99.90
13344;DHT22;6741;48.964;9.406;2023-02-28T12:18:16;9.80;99.90
13344;DHT22;6741;48.964;9.406;2023-02-28T12:21:09;10.00;99.90
13344;DHT22;6741;48.964;9.406;2023-02-28T12:24:00;10.90;99.90
13344;DHT22;6741;48.964;9.406;2023-02-28T12:26:36;11.60;99.90
13344;DHT22;6741;48.964;9.406;2023-02-28T12:29:12;11.80;99.90
13344;DHT22;6741;48.964;9.406;2023-02-28T12:31:44;12.30;99.90
13344;DHT22;6741;48.964;9.406;2023-02-28T12:34:15;12.30;99.90
13344;DHT22;6741;48.964;9.406;2023-02-28T12:36:44;12.60;99.90
13344;DHT22;6741;48.964;9.406;2023-02-28T12:39:16;11.70;99.90
13344;DHT22;6741;48.964;9.406;2023-02-28T12:41:51;12.20;99.90
13344;DHT22;6741;48.964;9.406;2023-02-28T12:44:23;12.40;99.90
13344;DHT22;6741;48.964;9.406;2023-02-28T12:46:56;12.60;99.90
13344;DHT22;6741;48.964;9.406;2023-02-28T12:49:29;12.50;99.90
13344;DHT22;6741;48.964;9.406;2023-02-28T12:51:59;12.90;99.90
13344;DHT22;6741;48.964;9.406;2023-02-28T12:54:31;13.70;99.90
13344;DHT22;6741;48.964;9.406;2023-02-28T12:57:06;13.20;99.90
13344;DHT22;6741;48.964;9.406;2023-02-28T12:59:39;13.60;99.50
13344;DHT22;6741;48.964;9.406;2023-02-28T13:02:45;13.60;99.80
13344;DHT22;6741;48.964;9.406;2023-02-28T13:05:54;14.00;99.20
13344;DHT22;6741;48.964;9.406;2023-02-28T13:11:26;15.10;98.70
13344;DHT22;6741;48.964;9.406;2023-02-28T13:14:00;15.80;97.70
13344;DHT22;6741;48.964;9.406;2023-02-28T13:16:51;15.50;97.20
13344;DHT22;6741;48.964;9.406;2023-02-28T13:19:20;15.10;96.10
13344;DHT22;6741;48.964;9.406;2023-02-28T13:21:50;14.80;96.00
13344;DHT22;6741;48.964;9.406;2023-02-28T13:27:32;14.80;95.90
13344;DHT22;6741;48.964;9.406;2023-02-28T13:33:26;14.20;97.00
13344;DHT22;6741;48.964;9.406;2023-02-28T13:36:22;14.60;96.90
13344;DHT22;6741;48.964;9.406;2023-02-28T13:38:51;14.10;96.00
13344;DHT22;6741;48.964;9.406;2023-02-28T13:41:46;13.80;96.80
13344;DHT22;6741;48.964;9.406;2023-02-28T13:44:16;13.20;96.20
13344;DHT22;6741;48.964;9.406;2023-02-28T13:47:23;12.00;96.20
13344;DHT22;6741;48.964;9.406;2023-02-28T13:49:52;11.80;97.30
13344;DHT22;6741;48.964;9.406;2023-02-28T13:52:22;12.10;97.50
13344;DHT22;6741;48.964;9.406;2023-02-28T13:54:59;11.80;96.40
13344;DHT22;6741;48.964;9.406;2023-02-28T13:57:37;12.10;97.30
13344;DHT22;6741;48.964;9.406;2023-02-28T14:00:20;12.30;97.20
13344;DHT22;6741;48.964;9.406;2023-02-28T14:03:07;10.80;97.50
13344;DHT22;6741;48.964;9.406;2023-02-28T14:05:38;10.80;97.70
13344;DHT22;6741;48.964;9.406;2023-02-28T14:08:08;11.10;98.70
13344;DHT22;6741;48.964;9.406;2023-02-28T14:10:42;11.50;98.50
13344;DHT22;6741;48.964;9.406;2023-02-28T14:13:37;12.10;98.70
13344;DHT22;6741;48.964;9.406;2023-02-28T14:16:10;11.10;97.90
13344;DHT22;6741;48.964;9.406;2023-02-28T14:18:41;11.10;98.60
13344;DHT22;6741;48.964;9.406;2023-02-28T14:21:14;11.00;98.00
13344;DHT22;6741;48.964;9.406;2023-02-28T14:24:19;11.30;98.10
13344;DHT22;6741;48.964;9.406;2023-02-28T14:27:16;11.70;98.30
13344;DHT22;6741;48.964;9.406;2023-02-28T14:32:59;12.00;97.90
13344;DHT22;6741;48.964;9.406;2023-02-28T14:35:45;12.20;97.60
13344;DHT22;6741;48.964;9.406;2023-02-28T14:38:22;11.80;98.20
13344;DHT22;6741;48.964;9.406;2023-02-28T14:40:52;11.40;97.80
13344;DHT22;6741;48.964;9.406;2023-02-28T14:43:21;10.90;98.60
13344;DHT22;6741;48.964;9.406;2023-02-28T14:45:51;10.90;98.20
13344;DHT22;6741;48.964;9.406;2023-02-28T14:48:20;11.20;98.70
13344;DHT22;6741;48.964;9.406;2023-02-28T14:50:54;11.40;98.40
13344;DHT22;6741;48.964;9.406;2023-02-28T14:53:27;11.60;97.90
13344;DHT22;6741;48.964;9.406;2023-02-28T14:55:55;12.50;97.70
13344;DHT22;6741;48.964;9.406;2023-02-28T14:58:25;11.60;97.20
13344;DHT22;6741;48.964;9.406;2023-02-28T15:00:55;11.50;97.80
13344;DHT22;6741;48.964;9.406;2023-02-28T15:03:29;11.60;98.00
13344;DHT22;6741;48.964;9.406;2023-02-28T15:06:06;11.70;97.90
13344;DHT22;6741;48.964;9.406;2023-02-28T15:08:41;12.40;97.90
13344;DHT22;6741;48.964;9.406;2023-02-28T15:11:11;12.30;97.40
13344;DHT22;6741;48.964;9.406;2023-02-28T15:13:41;11.20;97.80
13344;DHT22;6741;48.964;9.406;2023-02-28T15:16:15;11.20;98.10
13344;DHT22;6741;48.964;9.406;2023-02-28T15:18:46;9.70;99.40
13344;DHT22;6741;48.964;9.406;2023-02-28T15:21:18;8.50;99.90
13344;DHT22;6741;48.964;9.406;2023-02-28T15:23:51;7.60;99.90
13344;DHT22;6741;48.964;9.406;2023-02-28T15:26:21;7.20;99.90
13344;DHT22;6741;48.964;9.406;2023-02-28T15:28:50;6.80;99.90
13344;DHT22;6741;48.964;9.406;2023-02-28T15:31:22;6.40;99.90
13344;DHT22;6741;48.964;9.406;2023-02-28T15:33:54;6.00;99.90
13344;DHT22;6741;48.964;9.406;2023-02-28T15:36:25;5.60;99.90
13344;DHT22;6741;48.964;9.406;2023-02-28T15:38:53;5.20;99.90
13344;DHT22;6741;48.964;9.406;2023-02-28T15:41:28;5.10;99.90
13344;DHT22;6741;48.964;9.406;2023-02-28T15:44:15;5.00;99.90
13344;DHT22;6741;48.964;9.406;2023-02-28T15:46:53;5.10;99.90
13344;DHT22;6741;48.964;9.406;2023-02-28T15:49:22;4.90;99.90
13344;DHT22;6741;48.964;9.406;2023-02-28T15:51:55;4.70;99.90
13344;DHT22;6741;48.964;9.406;2023-02-28T15:54:28;4.60;99.90
13344;DHT22;6741;48.964;9.406;2023-02-28T15:56:57;4.60;99.90
13344;DHT22;6741;48.964;9.406;2023-02-28T15:59:27;4.50;99.90
13344;DHT22;6741;48.964;9.406;2023-02-28T16:02:21;4.40;99.90
13344;DHT22;6741;48.964;9.406;2023-02-28T16:04:57;4.30;99.90
13344;DHT22;6741;48.964;9.406;2023-02-28T16:07:28;4.10;99.90
13344;DHT22;6741;48.964;9.406;2023-02-28T16:09:55;4.00;99.90
13344;DHT22;6741;48.964;9.406;2023-02-28T16:12:26;3.90;99.90
13344;DHT22;6741;48.964;9.406;2023-02-28T16:15:20;3.80;99.90
13344;DHT22;6741;48.964;9.406;2023-02-28T16:17:49;3.70;99.90
13344;DHT22;6741;48.964;9.406;2023-02-28T16:20:20;3.70;99.90
13344;DHT22;6741;48.964;9.406;2023-02-28T16:22:50;3.60;99.90
13344;DHT22;6741;48.964;9.406;2023-02-28T16:25:23;3.60;99.90
13344;DHT22;6741;48.964;9.406;2023-02-28T16:27:52;3.60;99.90
13344;DHT22;6741;48.964;9.406;2023-02-28T16:30:24;3.50;99.90
13344;DHT22;6741;48.964;9.406;2023-02-28T16:32:53;3.40;99.90
13344;DHT22;6741;48.964;9.406;2023-02-28T16:35:22;3.40;99.90
13344;DHT22;6741;48.964;9.406;2023-02-28T16:38:00;3.30;99.90